Time;durP1;ratioP1;P1;durP2;ratioP2;P2;SDS_P1;SDS_P2;PMS_P1;PMS_P2;Temp;Humidity;BMP_temperature;BMP_pressure;BME280_temperature;BME280_humidity;BME280_pressure;Samples;Min_cycle;Max_cycle;Signal;HPM_P1;HPM_P2
2022/10/20 00:00:57;;;;;;;0.00;0.00;;;7.50;99.90;;;;;;5097533;28;20043;-81
2022/10/20 00:03:23;;;;;;;0.00;0.00;;;7.50;99.90;;;;;;5097886;28;20100;-81
2022/10/20 00:05:49;;;;;;;0.00;0.00;;;7.50;99.90;;;;;;5097659;28;20115;-81
2022/10/20 00:08:15;;;;;;;0.00;0.00;;;7.50;99.90;;;;;;5097493;28;20535;-81
2022/10/20 00:10:41;;;;;;;0.00;0.00;;;7.50;99.90;;;;;;5097610;28;20181;-81
2022/10/20 00:13:06;;;;;;;0.00;0.00;;;7.50;99.90;;;;;;5113911;28;20490;-81
2022/10/20 00:15:32;;;;;;;0.00;0.00;;;7.50;99.90;;;;;;5097263;28;20132;-81
2022/10/20 00:17:58;;;;;;;0.00;0.00;;;7.40;99.90;;;;;;5097375;28;20051;-81
2022/10/20 00:20:23;;;;;;;0.00;0.00;;;7.40;99.90;;;;;;5114523;28;20142;-81
2022/10/20 00:22:49;;;;;;;0.00;0.00;;;7.40;99.90;;;;;;5114103;28;20126;-81
2022/10/20 00:25:15;;;;;;;0.52;0.38;;;7.40;99.90;;;;;;5097227;28;20097;-81
2022/10/20 00:27:40;;;;;;;0.10;0.00;;;7.40;99.90;;;;;;5096988;28;20086;-81
2022/10/20 00:30:06;;;;;;;0.00;0.00;;;7.40;99.90;;;;;;5113871;28;20522;-81
2022/10/20 00:32:32;;;;;;;0.15;0.10;;;7.40;99.90;;;;;;5114111;28;20493;-81
2022/10/20 00:34:58;;;;;;;0.00;0.00;;;7.40;99.90;;;;;;5113816;28;20126;-81
2022/10/20 00:37:23;;;;;;;0.00;0.00;;;7.30;99.90;;;;;;5097020;28;20040;-81
2022/10/20 00:39:49;;;;;;;0.00;0.00;;;7.40;99.90;;;;;;5097053;28;20468;-81
2022/10/20 00:42:16;;;;;;;0.00;0.00;;;7.30;99.90;;;;;;5114551;28;20080;-81
2022/10/20 00:44:54;;;;;;;0.00;0.00;;;7.30;99.90;;;;;;5097297;28;20043;-81
2022/10/20 00:47:34;;;;;;;0.00;0.00;;;7.30;99.90;;;;;;5114103;28;20113;-81
2022/10/20 00:50:10;;;;;;;0.00;0.00;;;7.30;99.90;;;;;;5113608;28;20039;-81
2022/10/20 00:52:37;;;;;;;0.00;0.00;;;7.30;99.90;;;;;;5113907;28;20086;-81
2022/10/20 00:55:04;;;;;;;0.00;0.00;;;7.30;99.90;;;;;;5096767;28;20040;-81
2022/10/20 00:57:31;;;;;;;0.10;0.10;;;7.20;99.90;;;;;;5113725;28;20050;-81
2022/10/20 00:59:57;;;;;;;0.00;0.00;;;7.20;99.90;;;;;;5096868;28;20391;-81
2022/10/20 01:02:22;;;;;;;0.03;0.03;;;7.20;99.90;;;;;;5113505;28;20072;-81
2022/10/20 01:04:49;;;;;;;0.00;0.00;;;7.20;99.90;;;;;;5113444;28;20077;-81
2022/10/20 01:07:14;;;;;;;0.00;0.00;;;7.20;99.90;;;;;;5096493;28;20055;-81
2022/10/20 01:09:40;;;;;;;0.00;0.00;;;7.10;99.90;;;;;;5113613;28;20043;-81
2022/10/20 01:12:27;;;;;;;0.20;0.10;;;7.10;99.90;;;;;;5096577;28;20180;-81
2022/10/20 01:15:10;;;;;;;0.05;0.00;;;7.10;99.90;;;;;;5113800;28;20430;-81
2022/10/20 01:17:41;;;;;;;0.10;0.10;;;7.10;99.90;;;;;;5113438;28;20395;-81
2022/10/20 01:20:35;;;;;;;0.00;0.00;;;7.10;99.90;;;;;;5113468;28;20047;-81
2022/10/20 01:23:16;;;;;;;0.10;0.05;;;7.00;99.90;;;;;;5096510;28;20040;-81
2022/10/20 01:26:29;;;;;;;0.00;0.00;;;7.00;99.90;;;;;;5113266;28;20475;-81
2022/10/20 01:28:54;;;;;;;0.00;0.00;;;7.00;99.90;;;;;;5054653;28;20454;-81
2022/10/20 01:31:29;;;;;;;0.10;0.00;;;7.00;99.90;;;;;;5054958;28;20045;-82
2022/10/20 01:34:18;;;;;;;0.00;0.00;;;6.90;99.90;;;;;;5038538;28;20056;-81
2022/10/20 01:36:52;;;;;;;0.00;0.00;;;6.90;99.90;;;;;;5055329;28;20279;-81
2022/10/20 01:39:28;;;;;;;0.00;0.00;;;6.90;99.90;;;;;;5038560;28;20071;-80
2022/10/20 01:42:06;;;;;;;0.05;0.05;;;6.90;99.90;;;;;;5037674;28;20436;-81
2022/10/20 01:44:35;;;;;;;0.00;0.00;;;6.90;99.90;;;;;;5054854;28;20053;-81
2022/10/20 01:47:01;;;;;;;0.00;0.00;;;6.90;99.90;;;;;;5038416;28;20041;-81
2022/10/20 01:49:27;;;;;;;0.80;0.52;;;6.90;99.90;;;;;;5054418;28;20135;-81
2022/10/20 01:51:54;;;;;;;0.30;0.30;;;7.00;99.90;;;;;;5038189;28;20135;-81
2022/10/20 01:54:26;;;;;;;0.17;0.17;;;6.90;99.90;;;;;;5038481;28;20059;-81
2022/10/20 01:57:00;;;;;;;0.43;0.20;;;6.80;99.90;;;;;;5071386;28;20060;-81
2022/10/20 01:59:53;;;;;;;0.00;0.00;;;6.80;99.90;;;;;;5054876;28;20048;-81
2022/10/20 02:02:50;;;;;;;0.20;0.20;;;6.90;99.90;;;;;;5073190;28;20086;-81
2022/10/20 02:05:28;;;;;;;1.48;0.20;;;6.90;99.90;;;;;;5112932;28;20047;-81
2022/10/20 02:08:10;;;;;;;0.00;0.00;;;6.90;99.90;;;;;;5113173;28;20134;-81
2022/10/20 02:10:58;;;;;;;0.00;0.00;;;6.90;99.90;;;;;;5096151;28;20036;-81
2022/10/20 02:13:27;;;;;;;0.00;0.00;;;6.90;99.90;;;;;;5095978;28;20047;-81
2022/10/20 02:15:55;;;;;;;0.80;0.52;;;6.90;99.90;;;;;;5112766;28;20061;-81
2022/10/20 02:18:28;;;;;;;0.10;0.10;;;6.80;99.90;;;;;;5095873;28;20096;-81
2022/10/20 02:20:56;;;;;;;0.00;0.00;;;6.90;99.90;;;;;;5113350;28;20403;-81
2022/10/20 02:23:22;;;;;;;0.00;0.00;;;6.90;99.90;;;;;;5112838;28;20083;-81
2022/10/20 02:25:51;;;;;;;0.00;0.00;;;6.90;99.90;;;;;;5112642;28;20051;-81
2022/10/20 02:28:18;;;;;;;0.00;0.00;;;6.90;99.90;;;;;;5095488;28;20043;-81
2022/10/20 02:30:45;;;;;;;0.00;0.00;;;6.80;99.90;;;;;;5095997;28;20089;-81
2022/10/20 02:33:12;;;;;;;0.35;0.35;;;6.80;99.90;;;;;;5095548;28;20517;-81
2022/10/20 02:35:41;;;;;;;0.00;0.00;;;6.80;99.90;;;;;;5112565;28;20040;-81
2022/10/20 02:38:06;;;;;;;0.00;0.00;;;6.80;99.90;;;;;;5116337;28;20048;-81
2022/10/20 02:40:32;;;;;;;0.00;0.00;;;6.80;99.90;;;;;;5099379;28;20124;-82
2022/10/20 02:42:57;;;;;;;0.00;0.00;;;6.80;99.90;;;;;;5116267;28;20424;-81
2022/10/20 02:45:23;;;;;;;2.40;0.43;;;6.80;99.90;;;;;;5116434;28;20040;-81
2022/10/20 02:47:49;;;;;;;0.00;0.00;;;6.80;99.90;;;;;;5116277;28;20066;-80
2022/10/20 02:50:15;;;;;;;0.60;0.38;;;6.80;99.90;;;;;;5116366;28;20497;-81
2022/10/20 02:52:41;;;;;;;0.00;0.00;;;6.70;99.90;;;;;;5116111;28;20048;-81
2022/10/20 02:55:07;;;;;;;0.00;0.00;;;6.80;99.90;;;;;;5116261;28;20042;-81
2022/10/20 02:57:33;;;;;;;0.17;0.05;;;6.70;99.90;;;;;;5116017;28;20420;-81
2022/10/20 02:59:58;;;;;;;0.10;0.10;;;6.70;99.90;;;;;;5099010;28;20503;-81
2022/10/20 03:02:24;;;;;;;0.82;0.15;;;6.80;99.90;;;;;;5115684;28;20047;-80
2022/10/20 03:04:49;;;;;;;0.00;0.00;;;6.70;99.90;;;;;;5099014;28;20040;-81
2022/10/20 03:07:15;;;;;;;0.10;0.03;;;6.80;99.90;;;;;;5098879;28;20039;-80
2022/10/20 03:09:41;;;;;;;0.00;0.00;;;6.80;99.90;;;;;;5098830;28;20052;-80
2022/10/20 03:12:06;;;;;;;0.00;0.00;;;6.80;99.90;;;;;;5115761;28;20134;-81
2022/10/20 03:14:32;;;;;;;0.00;0.00;;;6.80;99.90;;;;;;5115689;28;20035;-81
2022/10/20 03:16:58;;;;;;;0.20;0.00;;;6.80;99.90;;;;;;5115840;28;20070;-81
2022/10/20 03:19:23;;;;;;;0.00;0.00;;;6.80;99.90;;;;;;5115624;28;20592;-81
2022/10/20 03:21:49;;;;;;;0.68;0.10;;;6.80;99.90;;;;;;5115608;28;20055;-81
2022/10/20 03:24:15;;;;;;;0.13;0.10;;;6.80;99.90;;;;;;5115495;28;20047;-81
2022/10/20 03:26:40;;;;;;;0.17;0.10;;;6.80;99.90;;;;;;5098547;28;20054;-81
2022/10/20 03:29:06;;;;;;;0.00;0.00;;;6.80;99.90;;;;;;5098150;28;20067;-81
2022/10/20 03:31:32;;;;;;;0.10;0.00;;;6.90;99.90;;;;;;5115432;28;20070;-81
2022/10/20 03:33:57;;;;;;;0.00;0.00;;;6.80;99.90;;;;;;5115558;28;20035;-80
2022/10/20 03:36:23;;;;;;;0.32;0.10;;;6.80;99.90;;;;;;5098240;28;20044;-80
2022/10/20 03:38:49;;;;;;;0.22;0.03;;;6.90;99.90;;;;;;5115298;28;20047;-81
2022/10/20 03:41:14;;;;;;;0.00;0.00;;;6.70;99.90;;;;;;5115096;28;20364;-80
2022/10/20 03:43:40;;;;;;;0.65;0.35;;;6.80;99.90;;;;;;5115703;28;20127;-81
2022/10/20 03:46:09;;;;;;;0.03;0.03;;;6.70;99.90;;;;;;5115254;28;20483;-81
2022/10/20 03:48:35;;;;;;;0.00;0.00;;;6.70;99.90;;;;;;5097761;28;20544;-81
2022/10/20 03:51:02;;;;;;;0.20;0.20;;;6.70;99.90;;;;;;5115040;28;20039;-81
2022/10/20 03:53:28;;;;;;;0.00;0.00;;;6.70;99.90;;;;;;5098045;28;20047;-81
2022/10/20 03:55:54;;;;;;;0.03;0.03;;;6.70;99.90;;;;;;5097796;28;20087;-81
2022/10/20 03:58:20;;;;;;;0.20;0.20;;;6.80;99.90;;;;;;5115570;28;20047;-81
2022/10/20 04:00:46;;;;;;;0.00;0.00;;;6.70;99.90;;;;;;5114793;28;20036;-81
2022/10/20 04:03:12;;;;;;;0.10;0.10;;;6.70;99.90;;;;;;5097841;28;20051;-81
2022/10/20 04:05:38;;;;;;;0.10;0.10;;;6.70;99.90;;;;;;5114966;28;20043;-81
2022/10/20 04:08:04;;;;;;;0.05;0.03;;;6.70;99.90;;;;;;5114690;28;20051;-81
2022/10/20 04:10:30;;;;;;;0.10;0.00;;;6.60;99.90;;;;;;5114183;28;20386;-81
2022/10/20 04:13:00;;;;;;;0.20;0.13;;;6.60;99.90;;;;;;5114546;28;20031;-81
2022/10/20 04:15:26;;;;;;;0.05;0.00;;;6.60;99.90;;;;;;5114676;28;20047;-81
2022/10/20 04:17:52;;;;;;;0.00;0.00;;;6.70;99.90;;;;;;5097353;28;20411;-81
2022/10/20 04:20:18;;;;;;;0.00;0.00;;;6.60;99.90;;;;;;5097845;28;20093;-82
2022/10/20 04:22:43;;;;;;;0.32;0.10;;;6.60;99.90;;;;;;5114296;28;20101;-81
2022/10/20 04:25:11;;;;;;;0.13;0.05;;;6.60;99.90;;;;;;5096959;28;20490;-81
2022/10/20 04:27:37;;;;;;;0.15;0.15;;;6.60;99.90;;;;;;5113999;28;20047;-81
2022/10/20 04:30:03;;;;;;;0.00;0.00;;;6.60;99.90;;;;;;5096183;28;20055;-79
2022/10/20 04:32:29;;;;;;;0.30;0.10;;;6.60;99.90;;;;;;5096912;28;20055;-82
2022/10/20 04:34:55;;;;;;;0.10;0.00;;;6.60;99.90;;;;;;5114044;28;20051;-81
2022/10/20 04:37:20;;;;;;;0.00;0.00;;;6.60;99.90;;;;;;5096771;28;20040;-81
2022/10/20 04:39:46;;;;;;;0.00;0.00;;;6.60;99.90;;;;;;5113836;28;20043;-81
2022/10/20 04:42:11;;;;;;;0.10;0.03;;;6.60;99.90;;;;;;5113698;28;20040;-81
2022/10/20 04:44:38;;;;;;;0.00;0.00;;;6.60;99.90;;;;;;5097193;28;20048;-81
2022/10/20 04:47:03;;;;;;;0.00;0.00;;;6.60;99.90;;;;;;5113895;28;20052;-81
2022/10/20 04:49:29;;;;;;;0.00;0.00;;;6.60;99.90;;;;;;5113883;28;20047;-81
2022/10/20 04:51:54;;;;;;;0.00;0.00;;;6.70;99.90;;;;;;5096518;28;20039;-81
2022/10/20 04:54:20;;;;;;;0.00;0.00;;;6.60;99.90;;;;;;5096891;28;20059;-81
2022/10/20 04:56:46;;;;;;;0.00;0.00;;;6.60;99.90;;;;;;5097388;28;20043;-81
2022/10/20 04:59:11;;;;;;;0.00;0.00;;;6.60;99.90;;;;;;5096199;28;20055;-81
2022/10/20 05:01:38;;;;;;;1.85;0.63;;;6.60;99.90;;;;;;5113632;28;20037;-81
2022/10/20 05:04:03;;;;;;;0.10;0.10;;;6.60;99.90;;;;;;5096639;28;20143;-81
2022/10/20 05:06:30;;;;;;;0.32;0.17;;;6.60;99.90;;;;;;5113538;28;20126;-81
2022/10/20 05:08:58;;;;;;;0.43;0.08;;;6.60;99.90;;;;;;5113138;28;20522;-81
2022/10/20 05:11:26;;;;;;;0.10;0.10;;;6.60;99.90;;;;;;5096599;28;20050;-81
2022/10/20 05:13:52;;;;;;;0.30;0.22;;;6.60;99.90;;;;;;5096976;28;20066;-80
2022/10/20 05:16:18;;;;;;;0.00;0.00;;;6.60;99.90;;;;;;5113456;28;20495;-81
2022/10/20 05:18:45;;;;;;;0.03;0.00;;;6.60;99.90;;;;;;5113719;28;20051;-81
2022/10/20 05:21:14;;;;;;;0.10;0.00;;;6.50;99.90;;;;;;5113466;28;20040;-81
2022/10/20 05:23:41;;;;;;;0.00;0.00;;;6.50;99.90;;;;;;5096412;28;20499;-81
2022/10/20 05:26:09;;;;;;;2.90;0.15;;;6.50;99.90;;;;;;5113313;28;20134;-81
2022/10/20 05:28:35;;;;;;;0.10;0.00;;;6.50;99.90;;;;;;5096158;28;20070;-81
2022/10/20 05:31:07;;;;;;;0.00;0.00;;;6.50;99.90;;;;;;5096603;28;20487;-81
2022/10/20 05:33:33;;;;;;;0.22;0.22;;;6.50;99.90;;;;;;5113298;28;20044;-80
2022/10/20 05:35:59;;;;;;;0.00;0.00;;;6.50;99.90;;;;;;5113675;28;20061;-80
2022/10/20 05:38:24;;;;;;;0.32;0.30;;;6.50;99.90;;;;;;5096144;28;20058;-81
2022/10/20 05:40:50;;;;;;;0.00;0.00;;;6.50;99.90;;;;;;5096094;28;20051;-81
2022/10/20 05:43:16;;;;;;;0.00;0.00;;;6.50;99.90;;;;;;5113215;28;20126;-81
2022/10/20 05:45:41;;;;;;;0.00;0.00;;;6.50;99.90;;;;;;5096216;28;20567;-80
2022/10/20 05:48:07;;;;;;;0.08;0.00;;;6.50;99.90;;;;;;5113297;28;20476;-81
2022/10/20 05:50:33;;;;;;;2.55;0.25;;;6.50;99.90;;;;;;5112550;28;20058;-81
2022/10/20 05:52:59;;;;;;;0.10;0.10;;;6.50;99.90;;;;;;5096099;28;20059;-81
2022/10/20 05:55:24;;;;;;;0.00;0.00;;;6.50;99.90;;;;;;5113389;28;20051;-81
2022/10/20 05:57:50;;;;;;;0.13;0.13;;;6.50;99.90;;;;;;5113383;28;20496;-81
2022/10/20 06:00:28;;;;;;;0.10;0.10;;;6.50;99.90;;;;;;5113013;28;20048;-80
2022/10/20 06:02:53;;;;;;;0.00;0.00;;;6.50;99.90;;;;;;5112741;28;20548;-80
2022/10/20 06:05:19;;;;;;;0.10;0.10;;;6.50;99.90;;;;;;5096210;28;20047;-81
2022/10/20 06:07:45;;;;;;;0.00;0.00;;;6.50;99.90;;;;;;5113494;28;20086;-80
2022/10/20 06:10:10;;;;;;;0.00;0.00;;;6.50;99.90;;;;;;5112841;28;20464;-81
2022/10/20 06:12:36;;;;;;;0.00;0.00;;;6.50;99.90;;;;;;5099384;28;20142;-81
2022/10/20 06:15:01;;;;;;;6.93;1.10;;;6.50;99.90;;;;;;5099939;28;20047;-80
2022/10/20 06:17:27;;;;;;;0.03;0.00;;;6.50;99.90;;;;;;5099793;28;20437;-81
2022/10/20 06:19:53;;;;;;;0.30;0.25;;;6.40;99.90;;;;;;5116433;28;20098;-81
2022/10/20 06:22:18;;;;;;;0.03;0.00;;;6.50;99.90;;;;;;5099742;28;20043;-81
2022/10/20 06:24:44;;;;;;;0.43;0.08;;;6.50;99.90;;;;;;5099143;28;20059;-80
2022/10/20 06:27:10;;;;;;;0.52;0.32;;;6.50;99.90;;;;;;5099344;28;20391;-81
2022/10/20 06:29:35;;;;;;;0.00;0.00;;;6.50;99.90;;;;;;5116221;28;20102;-81
2022/10/20 06:32:01;;;;;;;0.00;0.00;;;6.50;99.90;;;;;;5099400;28;20087;-81
2022/10/20 06:34:26;;;;;;;0.47;0.20;;;6.50;99.90;;;;;;5116314;28;20044;-81
2022/10/20 06:36:52;;;;;;;0.00;0.00;;;6.50;99.90;;;;;;5099306;28;20047;-81
2022/10/20 06:39:22;;;;;;;0.00;0.00;;;6.60;99.90;;;;;;5099400;28;20080;-81
2022/10/20 06:41:50;;;;;;;0.28;0.00;;;6.60;99.90;;;;;;5099470;28;20039;-81
2022/10/20 06:44:17;;;;;;;0.00;0.00;;;6.60;99.90;;;;;;5099593;28;20055;-81
2022/10/20 06:46:43;;;;;;;1.13;0.40;;;6.60;99.90;;;;;;5116835;28;20050;-81
2022/10/20 06:49:10;;;;;;;0.03;0.00;;;6.70;99.90;;;;;;5116207;28;20039;-80
2022/10/20 06:51:36;;;;;;;0.55;0.35;;;6.70;99.90;;;;;;5116706;28;20126;-80
2022/10/20 06:54:03;;;;;;;0.00;0.00;;;6.70;99.90;;;;;;5116122;28;20487;-81
2022/10/20 06:56:30;;;;;;;0.10;0.00;;;6.80;99.90;;;;;;5116183;28;20043;-81
2022/10/20 06:58:57;;;;;;;0.20;0.20;;;6.80;99.90;;;;;;5116070;28;20104;-81
2022/10/20 07:01:31;;;;;;;0.20;0.10;;;6.80;99.90;;;;;;5115658;28;20052;-81
2022/10/20 07:04:00;;;;;;;1.23;0.20;;;6.90;99.90;;;;;;5099252;28;20050;-81
2022/10/20 07:06:31;;;;;;;0.00;0.00;;;6.90;99.90;;;;;;5115772;28;20050;-81
2022/10/20 07:08:58;;;;;;;0.00;0.00;;;6.90;99.90;;;;;;5115949;28;20043;-81
2022/10/20 07:11:28;;;;;;;1.65;0.28;;;6.90;99.90;;;;;;5115943;28;20403;-81
2022/10/20 07:13:54;;;;;;;0.00;0.00;;;7.00;99.90;;;;;;5115730;28;20089;-81
2022/10/20 07:16:23;;;;;;;0.00;0.00;;;7.10;99.90;;;;;;5116407;28;20047;-80
2022/10/20 07:18:49;;;;;;;0.00;0.00;;;7.00;99.90;;;;;;5098784;28;20082;-81
2022/10/20 07:21:21;;;;;;;10.43;0.43;;;7.10;99.90;;;;;;5115706;28;20047;-81
2022/10/20 07:23:47;;;;;;;0.00;0.00;;;7.10;99.90;;;;;;5115156;28;20043;-81
2022/10/20 07:26:16;;;;;;;1.05;0.32;;;7.20;99.90;;;;;;5115477;28;20517;-80
2022/10/20 07:28:44;;;;;;;0.00;0.00;;;7.20;99.90;;;;;;5098278;28;20047;-81
2022/10/20 07:31:18;;;;;;;0.00;0.00;;;7.30;99.90;;;;;;5116271;28;20055;-80
2022/10/20 07:33:44;;;;;;;0.00;0.00;;;7.30;99.90;;;;;;5115545;28;20391;-81
2022/10/20 07:36:16;;;;;;;0.00;0.00;;;7.30;99.90;;;;;;5116008;28;20050;-81
2022/10/20 07:38:42;;;;;;;0.00;0.00;;;7.50;99.90;;;;;;5098187;28;20046;-80
2022/10/20 07:41:08;;;;;;;0.35;0.05;;;7.50;99.90;;;;;;5098573;28;20062;-80
2022/10/20 07:43:35;;;;;;;0.20;0.20;;;7.40;99.90;;;;;;5115168;28;20083;-80
2022/10/20 07:46:01;;;;;;;0.10;0.10;;;7.50;99.90;;;;;;5098190;28;20055;-80
2022/10/20 07:48:26;;;;;;;0.10;0.00;;;7.50;99.90;;;;;;5115102;28;20383;-80
2022/10/20 07:50:52;;;;;;;0.55;0.45;;;7.60;99.90;;;;;;5114986;28;20051;-81
2022/10/20 07:53:18;;;;;;;0.00;0.00;;;7.60;99.90;;;;;;5097852;28;20050;-80
2022/10/20 07:55:44;;;;;;;2.47;0.30;;;7.70;99.90;;;;;;5114627;28;20043;-80
2022/10/20 07:58:10;;;;;;;0.00;0.00;;;7.70;99.90;;;;;;5114984;28;20081;-80
2022/10/20 08:00:36;;;;;;;0.30;0.00;;;7.80;99.90;;;;;;5114870;28;20051;-80
2022/10/20 08:03:02;;;;;;;0.70;0.40;;;7.80;99.90;;;;;;5114701;28;20119;-80
2022/10/20 08:05:28;;;;;;;0.38;0.00;;;7.90;99.90;;;;;;5114897;28;20047;-80
2022/10/20 08:07:54;;;;;;;0.00;0.00;;;7.90;99.90;;;;;;5097826;28;20073;-82
2022/10/20 08:10:20;;;;;;;0.10;0.10;;;8.00;99.90;;;;;;5114347;28;20044;-80
2022/10/20 08:12:46;;;;;;;0.08;0.00;;;8.00;99.90;;;;;;5115129;28;20063;-81
2022/10/20 08:15:11;;;;;;;0.10;0.10;;;8.10;99.90;;;;;;5114138;28;20043;-79
2022/10/20 08:17:37;;;;;;;0.40;0.20;;;8.20;99.90;;;;;;5114407;28;20052;-81
2022/10/20 08:20:04;;;;;;;1.08;0.20;;;8.20;99.90;;;;;;5114469;28;20048;-81
2022/10/20 08:22:29;;;;;;;1.58;0.93;;;8.30;99.90;;;;;;5097418;28;20043;-84
2022/10/20 08:24:55;;;;;;;0.03;0.03;;;8.30;99.90;;;;;;5114511;28;20508;-81
2022/10/20 08:27:20;;;;;;;0.10;0.10;;;8.50;99.90;;;;;;5114514;28;20043;-81
2022/10/20 08:29:46;;;;;;;0.10;0.10;;;8.60;99.90;;;;;;5113621;28;20502;-81
2022/10/20 08:32:13;;;;;;;0.65;0.10;;;8.80;99.90;;;;;;5114390;28;20054;-81
2022/10/20 08:34:39;;;;;;;0.32;0.15;;;9.00;99.90;;;;;;5113464;28;20093;-81
2022/10/20 08:37:05;;;;;;;0.05;0.05;;;9.20;99.90;;;;;;5114081;28;20094;-81
2022/10/20 08:39:30;;;;;;;0.57;0.10;;;9.30;99.90;;;;;;5114098;28;20087;-81
2022/10/20 08:41:57;;;;;;;0.63;0.30;;;9.40;99.90;;;;;;5114123;28;20090;-81
2022/10/20 08:44:27;;;;;;;0.00;0.00;;;9.50;99.90;;;;;;5096910;28;20571;-81
2022/10/20 08:46:53;;;;;;;0.45;0.45;;;9.70;99.90;;;;;;5114120;28;20130;-81
2022/10/20 08:49:24;;;;;;;0.08;0.00;;;9.90;99.90;;;;;;5096909;28;20078;-81
2022/10/20 08:51:50;;;;;;;0.10;0.05;;;10.20;99.90;;;;;;5114478;28;20122;-81
2022/10/20 08:54:17;;;;;;;0.00;0.00;;;10.30;99.90;;;;;;5096706;28;20146;-81
2022/10/20 08:56:43;;;;;;;0.25;0.15;;;10.50;99.90;;;;;;5097332;28;20083;-80
2022/10/20 08:59:33;;;;;;;0.00;0.00;;;10.60;99.90;;;;;;5096895;28;20083;-81
2022/10/20 09:01:59;;;;;;;0.00;0.00;;;10.70;99.90;;;;;;5113734;28;20055;-84
2022/10/20 09:04:39;;;;;;;0.00;0.00;;;10.60;99.90;;;;;;5113903;28;20040;-82
2022/10/20 09:07:34;;;;;;;0.30;0.00;;;10.50;99.90;;;;;;5113427;28;20052;-81
2022/10/20 09:10:21;;;;;;;0.05;0.00;;;10.50;99.90;;;;;;5113482;28;20487;-81
2022/10/20 09:12:48;;;;;;;0.00;0.00;;;10.40;99.90;;;;;;5113587;28;20035;-81
2022/10/20 09:15:16;;;;;;;0.10;0.00;;;10.40;99.90;;;;;;5113556;28;20101;-81
2022/10/20 09:18:05;;;;;;;0.00;0.00;;;10.30;99.90;;;;;;5096273;28;20055;-82
2022/10/20 09:20:42;;;;;;;1.35;0.10;;;10.40;99.90;;;;;;5113639;28;20039;-81
2022/10/20 09:23:17;;;;;;;0.00;0.00;;;10.30;99.90;;;;;;5096520;28;20567;-81
2022/10/20 09:25:44;;;;;;;0.35;0.35;;;10.40;99.90;;;;;;5096527;28;20134;-82
2022/10/20 09:28:25;;;;;;;0.10;0.10;;;10.40;99.90;;;;;;5102231;28;20130;-82
2022/10/20 09:30:51;;;;;;;0.55;0.55;;;10.40;99.90;;;;;;5094964;28;20064;-82
2022/10/20 09:33:33;;;;;;;0.68;0.10;;;10.50;99.90;;;;;;5092762;28;20044;-81
2022/10/20 09:36:15;;;;;;;0.08;0.00;;;10.70;99.90;;;;;;5076891;28;20375;-82
2022/10/20 09:38:46;;;;;;;0.57;0.08;;;10.60;99.90;;;;;;5092882;28;20487;-82
2022/10/20 09:41:25;;;;;;;0.10;0.00;;;10.70;99.90;;;;;;5076148;28;20056;-81
2022/10/20 09:44:06;;;;;;;0.22;0.22;;;10.80;99.90;;;;;;5092557;28;20056;-82
2022/10/20 09:46:47;;;;;;;0.10;0.10;;;10.90;99.90;;;;;;5096551;28;21004;-79
2022/10/20 09:49:36;;;;;;;0.00;0.00;;;11.10;99.90;;;;;;5115637;28;20060;-81
2022/10/20 09:52:13;;;;;;;0.10;0.10;;;11.30;99.90;;;;;;5117229;28;20055;-81
2022/10/20 09:54:38;;;;;;;0.00;0.00;;;11.40;99.90;;;;;;5080853;28;20120;-81
2022/10/20 09:57:13;;;;;;;0.00;0.00;;;11.40;99.90;;;;;;5079261;28;20056;-81
2022/10/20 09:59:45;;;;;;;0.20;0.20;;;11.50;99.90;;;;;;5096798;28;20052;-81
2022/10/20 10:02:13;;;;;;;0.00;0.00;;;11.40;99.90;;;;;;5079764;28;20137;-81
2022/10/20 10:04:49;;;;;;;0.00;0.00;;;11.50;99.90;;;;;;5097705;28;20055;-81
2022/10/20 10:07:21;;;;;;;0.40;0.40;;;11.50;99.90;;;;;;5100238;28;20417;-78
2022/10/20 10:09:57;;;;;;;0.00;0.00;;;11.60;99.90;;;;;;5099232;28;20056;-79
2022/10/20 10:12:25;;;;;;;0.73;0.73;;;12.10;99.90;;;;;;5100086;28;20052;-79
2022/10/20 10:14:54;;;;;;;0.10;0.10;;;12.50;99.90;;;;;;5116572;28;20101;-80
2022/10/20 10:17:38;;;;;;;19.75;1.60;;;12.60;99.90;;;;;;5116292;28;20147;-80
2022/10/20 10:20:10;;;;;;;0.10;0.10;;;13.00;99.90;;;;;;5116718;28;20079;-79
2022/10/20 10:22:36;;;;;;;0.00;0.00;;;13.20;99.90;;;;;;5116910;28;20055;-80
2022/10/20 10:25:05;;;;;;;0.17;0.17;;;13.30;99.90;;;;;;5099497;28;20048;-80
2022/10/20 10:27:33;;;;;;;0.08;0.08;;;13.30;99.90;;;;;;5116243;28;20060;-81
2022/10/20 10:30:27;;;;;;;0.00;0.00;;;13.30;99.90;;;;;;5115702;28;20082;-81
2022/10/20 10:32:53;;;;;;;0.00;0.00;;;13.50;99.90;;;;;;5117147;28;20143;-80
2022/10/20 10:35:41;;;;;;;0.00;0.00;;;13.60;99.90;;;;;;5099541;28;20055;-81
2022/10/20 10:38:09;;;;;;;0.57;0.20;;;13.80;99.90;;;;;;5116334;28;20108;-80
2022/10/20 10:40:57;;;;;;;0.80;0.38;;;13.90;99.90;;;;;;5099377;28;20050;-81
2022/10/20 10:43:50;;;;;;;0.13;0.10;;;13.90;99.90;;;;;;5099476;28;20052;-81
2022/10/20 10:46:19;;;;;;;0.05;0.05;;;14.10;99.90;;;;;;5098015;28;20146;-81
2022/10/20 10:49:03;;;;;;;0.00;0.00;;;14.00;99.90;;;;;;5116512;28;20055;-81
2022/10/20 10:51:50;;;;;;;0.00;0.00;;;13.70;99.90;;;;;;5116332;28;20039;-81
2022/10/20 10:54:27;;;;;;;0.00;0.00;;;13.50;99.90;;;;;;5098683;28;20487;-81
2022/10/20 10:57:11;;;;;;;0.00;0.00;;;13.50;99.90;;;;;;5098512;28;20090;-80
2022/10/20 10:59:42;;;;;;;0.40;0.10;;;13.50;99.90;;;;;;5099712;28;20043;-81
2022/10/20 11:02:46;;;;;;;0.00;0.00;;;13.60;99.90;;;;;;5116216;28;20051;-81
2022/10/20 11:05:21;;;;;;;0.10;0.05;;;13.80;99.90;;;;;;5116027;28;20086;-81
2022/10/20 11:08:10;;;;;;;2.45;0.52;;;13.80;99.90;;;;;;5098733;28;20051;-80
2022/10/20 11:10:45;;;;;;;0.03;0.03;;;13.70;99.90;;;;;;5115875;28;20092;-80
2022/10/20 11:13:21;;;;;;;0.08;0.08;;;13.70;99.90;;;;;;5115578;28;20487;-80
2022/10/20 11:16:07;;;;;;;0.38;0.38;;;13.60;99.90;;;;;;5115828;28;20513;-80
2022/10/20 11:18:43;;;;;;;0.10;0.00;;;13.60;99.90;;;;;;5098506;28;20051;-80
2022/10/20 11:21:31;;;;;;;0.03;0.00;;;13.50;99.90;;;;;;5098798;28;20050;-80
2022/10/20 11:24:19;;;;;;;0.00;0.00;;;13.40;99.90;;;;;;5098605;28;20039;-81
2022/10/20 11:26:49;;;;;;;0.17;0.17;;;13.30;99.90;;;;;;5099200;28;20105;-80
2022/10/20 11:29:26;;;;;;;0.00;0.00;;;13.30;99.90;;;;;;5115482;28;20043;-80
2022/10/20 11:32:00;;;;;;;0.00;0.00;;;13.30;99.90;;;;;;5115176;28;20433;-81
2022/10/20 11:34:36;;;;;;;0.00;0.00;;;13.30;99.90;;;;;;5114716;28;20138;-80
2022/10/20 11:37:12;;;;;;;0.00;0.00;;;13.20;99.90;;;;;;5115690;28;20156;-80
2022/10/20 11:39:59;;;;;;;0.00;0.00;;;13.30;99.90;;;;;;5115518;28;20056;-80
2022/10/20 11:42:53;;;;;;;0.00;0.00;;;13.30;99.90;;;;;;5114484;28;20380;-80
2022/10/20 11:45:49;;;;;;;0.20;0.20;;;13.30;99.90;;;;;;5094921;28;20050;-81
2022/10/20 11:48:19;;;;;;;0.10;0.10;;;13.20;99.90;;;;;;5113107;28;20074;-80
2022/10/20 11:50:55;;;;;;;0.00;0.00;;;13.20;99.90;;;;;;5094928;28;20058;-80
2022/10/20 11:53:31;;;;;;;0.10;0.10;;;13.20;99.90;;;;;;5114324;28;20441;-80
2022/10/20 11:56:06;;;;;;;0.15;0.10;;;13.10;99.90;;;;;;5115539;28;20096;-80
2022/10/20 11:58:50;;;;;;;0.00;0.00;;;13.10;99.90;;;;;;5098721;28;20039;-80
2022/10/20 12:01:35;;;;;;;0.00;0.00;;;13.10;99.90;;;;;;5114960;28;20043;-80
2022/10/20 12:04:33;;;;;;;0.08;0.08;;;13.00;99.90;;;;;;5115484;28;20047;-80
2022/10/20 12:07:13;;;;;;;0.00;0.00;;;13.00;99.90;;;;;;5114752;28;20062;-80
2022/10/20 12:10:06;;;;;;;0.00;0.00;;;13.00;99.90;;;;;;5113390;28;20096;-80
2022/10/20 12:12:44;;;;;;;0.20;0.20;;;12.90;99.90;;;;;;5114973;28;20040;-80
2022/10/20 12:15:20;;;;;;;0.35;0.35;;;12.90;99.90;;;;;;5098099;28;20058;-80
2022/10/20 12:17:47;;;;;;;0.00;0.00;;;12.90;99.90;;;;;;5114576;28;20040;-80
2022/10/20 12:20:22;;;;;;;0.00;0.00;;;12.90;99.90;;;;;;5114197;28;20051;-80
2022/10/20 12:22:54;;;;;;;0.00;0.00;;;12.90;99.90;;;;;;5114601;28;20124;-80
2022/10/20 12:25:26;;;;;;;0.50;0.10;;;12.80;99.90;;;;;;5097868;28;20054;-80
2022/10/20 12:28:21;;;;;;;0.82;0.40;;;12.80;99.90;;;;;;5114577;28;20047;-80
2022/10/20 12:31:02;;;;;;;0.50;0.30;;;12.80;99.90;;;;;;5038820;28;20185;-80
2022/10/20 12:33:48;;;;;;;0.00;0.00;;;12.70;99.90;;;;;;5055169;28;20057;-80
2022/10/20 12:36:17;;;;;;;1.75;0.13;;;12.60;99.90;;;;;;5056188;28;20060;-80
2022/10/20 12:38:49;;;;;;;0.10;0.00;;;12.60;99.90;;;;;;5055353;28;20226;-80
2022/10/20 12:41:29;;;;;;;0.00;0.00;;;12.60;99.90;;;;;;5055798;28;20056;-80
2022/10/20 12:44:06;;;;;;;0.10;0.10;;;12.60;99.90;;;;;;5038109;28;20527;-81
2022/10/20 12:46:34;;;;;;;0.03;0.00;;;12.50;99.90;;;;;;5055704;28;20057;-80
2022/10/20 12:49:06;;;;;;;0.20;0.20;;;12.50;99.90;;;;;;5037556;28;20488;-80
2022/10/20 12:51:37;;;;;;;0.10;0.10;;;12.50;99.90;;;;;;5055600;28;20066;-80
2022/10/20 12:54:30;;;;;;;0.45;0.45;;;12.50;99.90;;;;;;5055684;28;20060;-80
2022/10/20 12:57:02;;;;;;;0.20;0.00;;;12.50;99.90;;;;;;5055834;28;20156;-80
2022/10/20 12:59:28;;;;;;;0.10;0.00;;;12.50;99.90;;;;;;5055575;28;20049;-80
2022/10/20 13:02:08;;;;;;;0.30;0.30;;;12.40;99.90;;;;;;5054354;28;20063;-80
2022/10/20 13:04:56;;;;;;;0.80;0.30;;;12.40;99.90;;;;;;5054840;28;20055;-81
2022/10/20 13:07:47;;;;;;;0.00;0.00;;;12.40;99.90;;;;;;5088123;28;20052;-81
2022/10/20 13:10:31;;;;;;;0.10;0.10;;;12.40;99.90;;;;;;5096389;28;20048;-81
2022/10/20 13:13:02;;;;;;;0.00;0.00;;;12.30;99.90;;;;;;5113651;28;20051;-81